sensor_id;sensor_type;location;lat;lon;timestamp;pressure;altitude;pressure_sealevel;temperature
11321;BMP180;5715;48.234;14.320;2023-05-10T00:01:36;97914.00;;;20.00
11321;BMP180;5715;48.234;14.320;2023-05-10T00:04:24;97908.00;;;20.00
11321;BMP180;5715;48.234;14.320;2023-05-10T00:07:14;97901.00;;;20.20
11321;BMP180;5715;48.234;14.320;2023-05-10T00:10:04;97890.00;;;20.00
11321;BMP180;5715;48.234;14.320;2023-05-10T00:12:52;97901.00;;;20.20
11321;BMP180;5715;48.234;14.320;2023-05-10T00:15:40;97904.00;;;20.00
11321;BMP180;5715;48.234;14.320;2023-05-10T00:18:27;97902.00;;;20.40
11321;BMP180;5715;48.234;14.320;2023-05-10T00:21:15;97902.00;;;20.30
11321;BMP180;5715;48.234;14.320;2023-05-10T00:24:02;97907.00;;;20.50
11321;BMP180;5715;48.234;14.320;2023-05-10T00:26:50;97904.00;;;20.40
11321;BMP180;5715;48.234;14.320;2023-05-10T00:29:38;97899.00;;;20.30
11321;BMP180;5715;48.234;14.320;2023-05-10T00:32:25;97898.00;;;20.20
11321;BMP180;5715;48.234;14.320;2023-05-10T00:35:13;97903.00;;;20.30
11321;BMP180;5715;48.234;14.320;2023-05-10T00:38:00;97905.00;;;20.60
11321;BMP180;5715;48.234;14.320;2023-05-10T00:40:48;97893.00;;;20.50
11321;BMP180;5715;48.234;14.320;2023-05-10T00:43:35;97902.00;;;20.50
11321;BMP180;5715;48.234;14.320;2023-05-10T00:46:24;97918.00;;;20.50
11321;BMP180;5715;48.234;14.320;2023-05-10T00:49:12;97916.00;;;20.50
11321;BMP180;5715;48.234;14.320;2023-05-10T00:52:00;97921.00;;;20.40
11321;BMP180;5715;48.234;14.320;2023-05-10T00:54:51;97923.00;;;20.30
11321;BMP180;5715;48.234;14.320;2023-05-10T00:57:39;97927.00;;;20.20
11321;BMP180;5715;48.234;14.320;2023-05-10T01:00:27;97926.00;;;20.00
11321;BMP180;5715;48.234;14.320;2023-05-10T01:03:15;97943.00;;;20.20
11321;BMP180;5715;48.234;14.320;2023-05-10T01:06:02;97933.00;;;20.20
11321;BMP180;5715;48.234;14.320;2023-05-10T01:08:50;97941.00;;;20.20
11321;BMP180;5715;48.234;14.320;2023-05-10T01:11:40;97934.00;;;20.10
11321;BMP180;5715;48.234;14.320;2023-05-10T01:14:28;97939.00;;;20.00
11321;BMP180;5715;48.234;14.320;2023-05-10T01:17:17;97934.00;;;20.00
11321;BMP180;5715;48.234;14.320;2023-05-10T01:20:08;97939.00;;;19.90
11321;BMP180;5715;48.234;14.320;2023-05-10T01:26:39;97944.00;;;19.90
11321;BMP180;5715;48.234;14.320;2023-05-10T01:36:48;97943.00;;;19.80
11321;BMP180;5715;48.234;14.320;2023-05-10T01:42:31;97955.00;;;19.50
11321;BMP180;5715;48.234;14.320;2023-05-10T01:45:31;97957.00;;;19.20
11321;BMP180;5715;48.234;14.320;2023-05-10T01:48:22;97957.00;;;18.90
11321;BMP180;5715;48.234;14.320;2023-05-10T01:51:11;97953.00;;;18.60
11321;BMP180;5715;48.234;14.320;2023-05-10T01:54:02;97951.00;;;18.50
11321;BMP180;5715;48.234;14.320;2023-05-10T01:57:00;97947.00;;;18.40
11321;BMP180;5715;48.234;14.320;2023-05-10T01:59:51;97948.00;;;18.30
11321;BMP180;5715;48.234;14.320;2023-05-10T02:02:45;97945.00;;;18.30
11321;BMP180;5715;48.234;14.320;2023-05-10T02:05:34;97943.00;;;18.30
11321;BMP180;5715;48.234;14.320;2023-05-10T02:08:24;97946.00;;;18.10
11321;BMP180;5715;48.234;14.320;2023-05-10T02:11:14;97941.00;;;18.10
11321;BMP180;5715;48.234;14.320;2023-05-10T02:14:02;97940.00;;;17.90
11321;BMP180;5715;48.234;14.320;2023-05-10T02:16:53;97950.00;;;17.70
11321;BMP180;5715;48.234;14.320;2023-05-10T02:19:44;97956.00;;;17.60
11321;BMP180;5715;48.234;14.320;2023-05-10T02:22:36;97964.00;;;17.50
11321;BMP180;5715;48.234;14.320;2023-05-10T02:25:25;97966.00;;;17.40
11321;BMP180;5715;48.234;14.320;2023-05-10T02:28:15;97968.00;;;17.30
11321;BMP180;5715;48.234;14.320;2023-05-10T02:31:06;97960.00;;;17.30
11321;BMP180;5715;48.234;14.320;2023-05-10T02:33:56;97960.00;;;17.50
11321;BMP180;5715;48.234;14.320;2023-05-10T02:36:44;97957.00;;;17.60
11321;BMP180;5715;48.234;14.320;2023-05-10T02:39:33;97966.00;;;17.50
11321;BMP180;5715;48.234;14.320;2023-05-10T02:42:27;97962.00;;;17.60
11321;BMP180;5715;48.234;14.320;2023-05-10T02:45:21;97970.00;;;17.50
11321;BMP180;5715;48.234;14.320;2023-05-10T02:48:10;97967.00;;;17.50
11321;BMP180;5715;48.234;14.320;2023-05-10T02:51:05;97968.00;;;17.50
11321;BMP180;5715;48.234;14.320;2023-05-10T02:53:56;97962.00;;;17.60
11321;BMP180;5715;48.234;14.320;2023-05-10T02:56:52;97972.00;;;17.50
11321;BMP180;5715;48.234;14.320;2023-05-10T02:59:41;97968.00;;;17.50
11321;BMP180;5715;48.234;14.320;2023-05-10T03:02:30;97963.00;;;17.50
11321;BMP180;5715;48.234;14.320;2023-05-10T03:05:19;97962.00;;;17.50
11321;BMP180;5715;48.234;14.320;2023-05-10T03:08:07;97958.00;;;17.60
11321;BMP180;5715;48.234;14.320;2023-05-10T03:20:43;97961.00;;;17.40
11321;BMP180;5715;48.234;14.320;2023-05-10T03:23:46;97962.00;;;17.40
11321;BMP180;5715;48.234;14.320;2023-05-10T03:26:34;97965.00;;;17.40
11321;BMP180;5715;48.234;14.320;2023-05-10T03:29:26;97958.00;;;17.70
11321;BMP180;5715;48.234;14.320;2023-05-10T03:32:15;97970.00;;;17.70
11321;BMP180;5715;48.234;14.320;2023-05-10T03:35:13;97967.00;;;17.70
11321;BMP180;5715;48.234;14.320;2023-05-10T03:38:01;97963.00;;;17.80
11321;BMP180;5715;48.234;14.320;2023-05-10T03:40:49;97973.00;;;17.80
11321;BMP180;5715;48.234;14.320;2023-05-10T03:43:36;97969.00;;;17.90
11321;BMP180;5715;48.234;14.320;2023-05-10T03:46:24;97967.00;;;18.10
11321;BMP180;5715;48.234;14.320;2023-05-10T03:49:12;97969.00;;;18.20
11321;BMP180;5715;48.234;14.320;2023-05-10T03:51:59;97977.00;;;18.30
11321;BMP180;5715;48.234;14.320;2023-05-10T03:54:47;97969.00;;;18.70
11321;BMP180;5715;48.234;14.320;2023-05-10T03:57:34;97974.00;;;18.70
11321;BMP180;5715;48.234;14.320;2023-05-10T04:00:22;97968.00;;;19.00
11321;BMP180;5715;48.234;14.320;2023-05-10T04:03:11;97980.00;;;19.20
11321;BMP180;5715;48.234;14.320;2023-05-10T04:06:00;97982.00;;;19.40
11321;BMP180;5715;48.234;14.320;2023-05-10T04:08:49;97985.00;;;19.50
11321;BMP180;5715;48.234;14.320;2023-05-10T04:11:36;97986.00;;;19.60
11321;BMP180;5715;48.234;14.320;2023-05-10T04:14:24;97993.00;;;19.50
11321;BMP180;5715;48.234;14.320;2023-05-10T04:17:11;97987.00;;;19.50
11321;BMP180;5715;48.234;14.320;2023-05-10T04:19:59;97994.00;;;19.60
11321;BMP180;5715;48.234;14.320;2023-05-10T04:22:46;97986.00;;;19.60
11321;BMP180;5715;48.234;14.320;2023-05-10T04:25:35;97989.00;;;19.70
11321;BMP180;5715;48.234;14.320;2023-05-10T04:28:22;97987.00;;;19.80
11321;BMP180;5715;48.234;14.320;2023-05-10T04:31:10;97986.00;;;19.70
11321;BMP180;5715;48.234;14.320;2023-05-10T04:33:58;97987.00;;;19.80
11321;BMP180;5715;48.234;14.320;2023-05-10T04:36:45;97989.00;;;19.90
11321;BMP180;5715;48.234;14.320;2023-05-10T04:39:33;97990.00;;;19.90
11321;BMP180;5715;48.234;14.320;2023-05-10T04:42:20;97987.00;;;19.90
11321;BMP180;5715;48.234;14.320;2023-05-10T04:45:08;97999.00;;;19.90
11321;BMP180;5715;48.234;14.320;2023-05-10T04:47:56;97994.00;;;20.00
11321;BMP180;5715;48.234;14.320;2023-05-10T04:50:44;97999.00;;;20.00
11321;BMP180;5715;48.234;14.320;2023-05-10T04:53:32;98000.00;;;20.10
11321;BMP180;5715;48.234;14.320;2023-05-10T04:56:19;98000.00;;;20.10
11321;BMP180;5715;48.234;14.320;2023-05-10T04:59:07;98004.00;;;20.20
11321;BMP180;5715;48.234;14.320;2023-05-10T05:01:54;98003.00;;;20.30
11321;BMP180;5715;48.234;14.320;2023-05-10T05:04:42;98004.00;;;20.30
11321;BMP180;5715;48.234;14.320;2023-05-10T05:07:30;98005.00;;;20.40
11321;BMP180;5715;48.234;14.320;2023-05-10T05:10:18;98007.00;;;20.50
11321;BMP180;5715;48.234;14.320;2023-05-10T05:13:05;98004.00;;;20.50
11321;BMP180;5715;48.234;14.320;2023-05-10T05:15:53;98015.00;;;20.50
11321;BMP180;5715;48.234;14.320;2023-05-10T05:18:42;98013.00;;;20.60
11321;BMP180;5715;48.234;14.320;2023-05-10T05:21:29;98016.00;;;20.50
11321;BMP180;5715;48.234;14.320;2023-05-10T05:24:17;98024.00;;;20.50
11321;BMP180;5715;48.234;14.320;2023-05-10T05:27:05;98017.00;;;20.50
11321;BMP180;5715;48.234;14.320;2023-05-10T05:29:56;98028.00;;;20.50
11321;BMP180;5715;48.234;14.320;2023-05-10T05:32:44;98031.00;;;20.60
11321;BMP180;5715;48.234;14.320;2023-05-10T05:35:31;98034.00;;;20.80
11321;BMP180;5715;48.234;14.320;2023-05-10T05:38:19;98021.00;;;20.70
11321;BMP180;5715;48.234;14.320;2023-05-10T05:41:06;98027.00;;;20.80
11321;BMP180;5715;48.234;14.320;2023-05-10T05:43:54;98033.00;;;20.90
11321;BMP180;5715;48.234;14.320;2023-05-10T05:46:41;98026.00;;;21.00
11321;BMP180;5715;48.234;14.320;2023-05-10T05:49:29;98034.00;;;20.90
11321;BMP180;5715;48.234;14.320;2023-05-10T05:52:17;98028.00;;;20.90
11321;BMP180;5715;48.234;14.320;2023-05-10T05:55:05;98035.00;;;21.00
11321;BMP180;5715;48.234;14.320;2023-05-10T05:57:52;98045.00;;;21.00
11321;BMP180;5715;48.234;14.320;2023-05-10T06:00:41;98050.00;;;21.00
11321;BMP180;5715;48.234;14.320;2023-05-10T06:03:29;98058.00;;;21.10
11321;BMP180;5715;48.234;14.320;2023-05-10T06:06:16;98056.00;;;21.00
11321;BMP180;5715;48.234;14.320;2023-05-10T06:09:04;98060.00;;;21.10
11321;BMP180;5715;48.234;14.320;2023-05-10T06:11:51;98067.00;;;21.10
11321;BMP180;5715;48.234;14.320;2023-05-10T06:14:39;98069.00;;;21.20
11321;BMP180;5715;48.234;14.320;2023-05-10T06:17:26;98064.00;;;21.20
11321;BMP180;5715;48.234;14.320;2023-05-10T06:20:15;98072.00;;;21.20
11321;BMP180;5715;48.234;14.320;2023-05-10T06:23:03;98068.00;;;21.40
11321;BMP180;5715;48.234;14.320;2023-05-10T06:25:51;98069.00;;;21.20
11321;BMP180;5715;48.234;14.320;2023-05-10T06:28:39;98071.00;;;21.20
11321;BMP180;5715;48.234;14.320;2023-05-10T06:31:27;98076.00;;;21.10
11321;BMP180;5715;48.234;14.320;2023-05-10T06:34:14;98082.00;;;21.10
11321;BMP180;5715;48.234;14.320;2023-05-10T06:37:02;98082.00;;;21.20
11321;BMP180;5715;48.234;14.320;2023-05-10T06:39:53;98086.00;;;21.20
11321;BMP180;5715;48.234;14.320;2023-05-10T06:42:40;98088.00;;;21.20
11321;BMP180;5715;48.234;14.320;2023-05-10T06:45:28;98087.00;;;21.10
11321;BMP180;5715;48.234;14.320;2023-05-10T06:48:16;98082.00;;;21.20
11321;BMP180;5715;48.234;14.320;2023-05-10T06:51:03;98090.00;;;21.10
11321;BMP180;5715;48.234;14.320;2023-05-10T06:53:51;98083.00;;;21.00
11321;BMP180;5715;48.234;14.320;2023-05-10T06:56:38;98091.00;;;21.00
11321;BMP180;5715;48.234;14.320;2023-05-10T06:59:26;98092.00;;;20.90
11321;BMP180;5715;48.234;14.320;2023-05-10T07:02:13;98103.00;;;20.90
11321;BMP180;5715;48.234;14.320;2023-05-10T07:05:02;98101.00;;;21.00
11321;BMP180;5715;48.234;14.320;2023-05-10T07:07:50;98104.00;;;20.90
11321;BMP180;5715;48.234;14.320;2023-05-10T07:10:38;98103.00;;;21.00
11321;BMP180;5715;48.234;14.320;2023-05-10T07:13:26;98108.00;;;21.00
11321;BMP180;5715;48.234;14.320;2023-05-10T07:16:13;98104.00;;;21.00
11321;BMP180;5715;48.234;14.320;2023-05-10T07:19:01;98104.00;;;20.90
11321;BMP180;5715;48.234;14.320;2023-05-10T07:21:49;98108.00;;;20.90
11321;BMP180;5715;48.234;14.320;2023-05-10T07:24:38;98115.00;;;20.90
11321;BMP180;5715;48.234;14.320;2023-05-10T07:27:25;98115.00;;;20.90
11321;BMP180;5715;48.234;14.320;2023-05-10T07:30:13;98106.00;;;20.90
11321;BMP180;5715;48.234;14.320;2023-05-10T07:33:01;98104.00;;;20.90
11321;BMP180;5715;48.234;14.320;2023-05-10T07:35:49;98115.00;;;20.90
11321;BMP180;5715;48.234;14.320;2023-05-10T07:38:37;98114.00;;;21.00
11321;BMP180;5715;48.234;14.320;2023-05-10T07:41:27;98116.00;;;20.60
11321;BMP180;5715;48.234;14.320;2023-05-10T07:44:14;98118.00;;;21.10
11321;BMP180;5715;48.234;14.320;2023-05-10T07:47:02;98120.00;;;20.90
11321;BMP180;5715;48.234;14.320;2023-05-10T07:49:50;98114.00;;;20.90
11321;BMP180;5715;48.234;14.320;2023-05-10T07:52:37;98125.00;;;21.00
11321;BMP180;5715;48.234;14.320;2023-05-10T07:55:25;98126.00;;;21.20
11321;BMP180;5715;48.234;14.320;2023-05-10T07:58:13;98120.00;;;21.20
11321;BMP180;5715;48.234;14.320;2023-05-10T08:01:01;98124.00;;;21.50
11321;BMP180;5715;48.234;14.320;2023-05-10T08:03:49;98126.00;;;21.50
11321;BMP180;5715;48.234;14.320;2023-05-10T08:06:37;98121.00;;;21.30
11321;BMP180;5715;48.234;14.320;2023-05-10T08:09:25;98126.00;;;21.20
11321;BMP180;5715;48.234;14.320;2023-05-10T08:12:12;98132.00;;;20.90
11321;BMP180;5715;48.234;14.320;2023-05-10T08:15:00;98133.00;;;21.10
11321;BMP180;5715;48.234;14.320;2023-05-10T08:17:47;98135.00;;;21.10
11321;BMP180;5715;48.234;14.320;2023-05-10T08:20:35;98138.00;;;21.00
11321;BMP180;5715;48.234;14.320;2023-05-10T08:23:23;98139.00;;;21.10
11321;BMP180;5715;48.234;14.320;2023-05-10T08:26:10;98142.00;;;21.00
11321;BMP180;5715;48.234;14.320;2023-05-10T08:28:58;98143.00;;;21.20
11321;BMP180;5715;48.234;14.320;2023-05-10T08:31:46;98144.00;;;21.40
11321;BMP180;5715;48.234;14.320;2023-05-10T08:34:33;98143.00;;;21.30
11321;BMP180;5715;48.234;14.320;2023-05-10T08:37:23;98150.00;;;21.20
11321;BMP180;5715;48.234;14.320;2023-05-10T08:40:12;98151.00;;;21.20
11321;BMP180;5715;48.234;14.320;2023-05-10T08:43:10;98153.00;;;20.60
11321;BMP180;5715;48.234;14.320;2023-05-10T08:46:03;98156.00;;;20.40
11321;BMP180;5715;48.234;14.320;2023-05-10T08:48:54;98162.00;;;20.40
11321;BMP180;5715;48.234;14.320;2023-05-10T08:51:49;98163.00;;;20.40
11321;BMP180;5715;48.234;14.320;2023-05-10T08:54:37;98159.00;;;20.40
11321;BMP180;5715;48.234;14.320;2023-05-10T08:57:26;98157.00;;;20.30
11321;BMP180;5715;48.234;14.320;2023-05-10T09:00:14;98167.00;;;20.50
11321;BMP180;5715;48.234;14.320;2023-05-10T09:03:04;98156.00;;;20.70
11321;BMP180;5715;48.234;14.320;2023-05-10T09:05:53;98168.00;;;20.60
11321;BMP180;5715;48.234;14.320;2023-05-10T09:08:43;98167.00;;;20.40
11321;BMP180;5715;48.234;14.320;2023-05-10T09:11:32;98171.00;;;20.50
11321;BMP180;5715;48.234;14.320;2023-05-10T09:14:20;98170.00;;;20.50
11321;BMP180;5715;48.234;14.320;2023-05-10T09:17:09;98165.00;;;20.90
11321;BMP180;5715;48.234;14.320;2023-05-10T09:20:04;98176.00;;;20.80
11321;BMP180;5715;48.234;14.320;2023-05-10T09:22:51;98172.00;;;20.90
11321;BMP180;5715;48.234;14.320;2023-05-10T09:25:41;98171.00;;;20.80
11321;BMP180;5715;48.234;14.320;2023-05-10T09:28:52;98165.00;;;20.90
11321;BMP180;5715;48.234;14.320;2023-05-10T09:31:47;98172.00;;;20.80
11321;BMP180;5715;48.234;14.320;2023-05-10T09:34:35;98166.00;;;21.00
11321;BMP180;5715;48.234;14.320;2023-05-10T09:37:30;98175.00;;;20.90
11321;BMP180;5715;48.234;14.320;2023-05-10T09:40:23;98165.00;;;21.30
11321;BMP180;5715;48.234;14.320;2023-05-10T09:43:11;98167.00;;;21.90
11321;BMP180;5715;48.234;14.320;2023-05-10T09:46:09;98165.00;;;21.70
11321;BMP180;5715;48.234;14.320;2023-05-10T09:48:58;98164.00;;;22.10
11321;BMP180;5715;48.234;14.320;2023-05-10T09:51:46;98164.00;;;21.70
11321;BMP180;5715;48.234;14.320;2023-05-10T09:54:34;98160.00;;;22.10
11321;BMP180;5715;48.234;14.320;2023-05-10T09:57:24;98160.00;;;21.90
11321;BMP180;5715;48.234;14.320;2023-05-10T10:00:19;98166.00;;;22.20
11321;BMP180;5715;48.234;14.320;2023-05-10T10:03:20;98164.00;;;21.80
11321;BMP180;5715;48.234;14.320;2023-05-10T10:06:08;98165.00;;;22.30
11321;BMP180;5715;48.234;14.320;2023-05-10T10:09:09;98164.00;;;22.30
11321;BMP180;5715;48.234;14.320;2023-05-10T10:11:57;98153.00;;;22.40
11321;BMP180;5715;48.234;14.320;2023-05-10T10:14:48;98167.00;;;22.80
11321;BMP180;5715;48.234;14.320;2023-05-10T10:17:37;98169.00;;;23.00
11321;BMP180;5715;48.234;14.320;2023-05-10T10:20:28;98161.00;;;23.10
11321;BMP180;5715;48.234;14.320;2023-05-10T10:23:16;98154.00;;;22.80
11321;BMP180;5715;48.234;14.320;2023-05-10T10:26:05;98156.00;;;22.90
11321;BMP180;5715;48.234;14.320;2023-05-10T10:29:31;98161.00;;;23.20
11321;BMP180;5715;48.234;14.320;2023-05-10T10:33:01;98162.00;;;22.90
11321;BMP180;5715;48.234;14.320;2023-05-10T10:36:14;98155.00;;;22.50
11321;BMP180;5715;48.234;14.320;2023-05-10T10:39:10;98156.00;;;22.90
11321;BMP180;5715;48.234;14.320;2023-05-10T10:41:59;98152.00;;;22.60
11321;BMP180;5715;48.234;14.320;2023-05-10T10:44:47;98159.00;;;22.60
11321;BMP180;5715;48.234;14.320;2023-05-10T10:47:35;98150.00;;;22.50
11321;BMP180;5715;48.234;14.320;2023-05-10T10:50:24;98151.00;;;22.80
11321;BMP180;5715;48.234;14.320;2023-05-10T10:53:12;98144.00;;;22.90
11321;BMP180;5715;48.234;14.320;2023-05-10T10:56:12;98145.00;;;22.80
11321;BMP180;5715;48.234;14.320;2023-05-10T10:59:00;98148.00;;;23.00
11321;BMP180;5715;48.234;14.320;2023-05-10T11:01:52;98151.00;;;23.30
11321;BMP180;5715;48.234;14.320;2023-05-10T11:04:44;98151.00;;;23.30
11321;BMP180;5715;48.234;14.320;2023-05-10T11:07:34;98155.00;;;23.40
11321;BMP180;5715;48.234;14.320;2023-05-10T11:10:23;98147.00;;;23.40
11321;BMP180;5715;48.234;14.320;2023-05-10T11:13:11;98150.00;;;23.00
11321;BMP180;5715;48.234;14.320;2023-05-10T11:16:19;98155.00;;;23.30
11321;BMP180;5715;48.234;14.320;2023-05-10T11:19:11;98149.00;;;23.20
11321;BMP180;5715;48.234;14.320;2023-05-10T11:24:58;98155.00;;;23.80
11321;BMP180;5715;48.234;14.320;2023-05-10T11:27:48;98151.00;;;23.50
11321;BMP180;5715;48.234;14.320;2023-05-10T11:30:38;98151.00;;;23.80
11321;BMP180;5715;48.234;14.320;2023-05-10T11:33:25;98148.00;;;23.90
11321;BMP180;5715;48.234;14.320;2023-05-10T11:36:28;98154.00;;;23.90
11321;BMP180;5715;48.234;14.320;2023-05-10T11:39:16;98154.00;;;23.70
11321;BMP180;5715;48.234;14.320;2023-05-10T11:42:03;98156.00;;;23.80
11321;BMP180;5715;48.234;14.320;2023-05-10T11:44:51;98162.00;;;23.80
11321;BMP180;5715;48.234;14.320;2023-05-10T11:47:39;98154.00;;;23.80
11321;BMP180;5715;48.234;14.320;2023-05-10T11:50:29;98157.00;;;23.80
11321;BMP180;5715;48.234;14.320;2023-05-10T11:53:21;98152.00;;;23.70
11321;BMP180;5715;48.234;14.320;2023-05-10T11:56:12;98149.00;;;23.70
11321;BMP180;5715;48.234;14.320;2023-05-10T11:59:00;98154.00;;;23.80
11321;BMP180;5715;48.234;14.320;2023-05-10T12:01:49;98153.00;;;23.70
11321;BMP180;5715;48.234;14.320;2023-05-10T12:04:36;98157.00;;;23.90
11321;BMP180;5715;48.234;14.320;2023-05-10T12:07:26;98156.00;;;23.50
11321;BMP180;5715;48.234;14.320;2023-05-10T12:10:14;98146.00;;;23.60
11321;BMP180;5715;48.234;14.320;2023-05-10T12:13:02;98153.00;;;23.20
11321;BMP180;5715;48.234;14.320;2023-05-10T12:15:50;98156.00;;;23.20
11321;BMP180;5715;48.234;14.320;2023-05-10T12:18:40;98161.00;;;23.20
11321;BMP180;5715;48.234;14.320;2023-05-10T12:21:30;98158.00;;;23.30
11321;BMP180;5715;48.234;14.320;2023-05-10T12:24:18;98158.00;;;23.10
11321;BMP180;5715;48.234;14.320;2023-05-10T12:27:08;98161.00;;;23.50
11321;BMP180;5715;48.234;14.320;2023-05-10T12:29:59;98151.00;;;23.60
11321;BMP180;5715;48.234;14.320;2023-05-10T12:32:47;98161.00;;;23.60
11321;BMP180;5715;48.234;14.320;2023-05-10T12:35:49;98160.00;;;23.30
11321;BMP180;5715;48.234;14.320;2023-05-10T12:38:45;98158.00;;;23.10
11321;BMP180;5715;48.234;14.320;2023-05-10T12:41:36;98156.00;;;23.20
11321;BMP180;5715;48.234;14.320;2023-05-10T12:44:23;98162.00;;;23.30
11321;BMP180;5715;48.234;14.320;2023-05-10T12:47:11;98171.00;;;23.40
11321;BMP180;5715;48.234;14.320;2023-05-10T12:50:00;98164.00;;;23.60
11321;BMP180;5715;48.234;14.320;2023-05-10T12:52:48;98164.00;;;23.60
11321;BMP180;5715;48.234;14.320;2023-05-10T12:55:35;98158.00;;;23.60
11321;BMP180;5715;48.234;14.320;2023-05-10T12:58:23;98151.00;;;23.60
11321;BMP180;5715;48.234;14.320;2023-05-10T13:01:21;98149.00;;;23.70
11321;BMP180;5715;48.234;14.320;2023-05-10T13:04:09;98154.00;;;23.70
11321;BMP180;5715;48.234;14.320;2023-05-10T13:06:57;98151.00;;;23.70
11321;BMP180;5715;48.234;14.320;2023-05-10T13:09:46;98157.00;;;24.00
11321;BMP180;5715;48.234;14.320;2023-05-10T13:12:33;98149.00;;;24.10
11321;BMP180;5715;48.234;14.320;2023-05-10T13:15:21;98150.00;;;24.20
11321;BMP180;5715;48.234;14.320;2023-05-10T13:18:09;98153.00;;;24.10
11321;BMP180;5715;48.234;14.320;2023-05-10T13:20:57;98145.00;;;24.20
11321;BMP180;5715;48.234;14.320;2023-05-10T13:23:44;98153.00;;;24.40
11321;BMP180;5715;48.234;14.320;2023-05-10T13:26:33;98154.00;;;24.40
11321;BMP180;5715;48.234;14.320;2023-05-10T13:29:21;98150.00;;;24.50
11321;BMP180;5715;48.234;14.320;2023-05-10T13:32:09;98147.00;;;24.60
11321;BMP180;5715;48.234;14.320;2023-05-10T13:34:57;98144.00;;;24.70
11321;BMP180;5715;48.234;14.320;2023-05-10T13:37:44;98147.00;;;24.70
11321;BMP180;5715;48.234;14.320;2023-05-10T13:40:32;98146.00;;;24.80
11321;BMP180;5715;48.234;14.320;2023-05-10T13:43:20;98148.00;;;24.70
11321;BMP180;5715;48.234;14.320;2023-05-10T13:46:07;98143.00;;;24.70
11321;BMP180;5715;48.234;14.320;2023-05-10T13:48:55;98140.00;;;25.00
11321;BMP180;5715;48.234;14.320;2023-05-10T13:51:43;98148.00;;;25.10
11321;BMP180;5715;48.234;14.320;2023-05-10T13:54:30;98141.00;;;25.40
11321;BMP180;5715;48.234;14.320;2023-05-10T13:57:18;98136.00;;;25.70
11321;BMP180;5715;48.234;14.320;2023-05-10T14:00:07;98136.00;;;26.40
11321;BMP180;5715;48.234;14.320;2023-05-10T14:02:55;98141.00;;;26.70
11321;BMP180;5715;48.234;14.320;2023-05-10T14:05:42;98139.00;;;26.90
11321;BMP180;5715;48.234;14.320;2023-05-10T14:08:32;98131.00;;;27.10
11321;BMP180;5715;48.234;14.320;2023-05-10T14:11:19;98132.00;;;27.20
11321;BMP180;5715;48.234;14.320;2023-05-10T14:14:11;98127.00;;;27.00
11321;BMP180;5715;48.234;14.320;2023-05-10T14:16:58;98126.00;;;26.80
11321;BMP180;5715;48.234;14.320;2023-05-10T14:19:46;98128.00;;;26.20
11321;BMP180;5715;48.234;14.320;2023-05-10T14:22:34;98122.00;;;26.40
11321;BMP180;5715;48.234;14.320;2023-05-10T14:25:23;98122.00;;;26.50
11321;BMP180;5715;48.234;14.320;2023-05-10T14:28:11;98120.00;;;26.50
11321;BMP180;5715;48.234;14.320;2023-05-10T14:30:59;98117.00;;;26.20
11321;BMP180;5715;48.234;14.320;2023-05-10T14:33:47;98117.00;;;26.00
11321;BMP180;5715;48.234;14.320;2023-05-10T14:36:35;98112.00;;;25.50
11321;BMP180;5715;48.234;14.320;2023-05-10T14:39:22;98110.00;;;25.30
11321;BMP180;5715;48.234;14.320;2023-05-10T14:42:11;98112.00;;;25.20
11321;BMP180;5715;48.234;14.320;2023-05-10T14:44:59;98119.00;;;25.00
11321;BMP180;5715;48.234;14.320;2023-05-10T14:47:46;98108.00;;;24.90
11321;BMP180;5715;48.234;14.320;2023-05-10T14:50:34;98106.00;;;24.60
11321;BMP180;5715;48.234;14.320;2023-05-10T14:53:23;98119.00;;;24.30
11321;BMP180;5715;48.234;14.320;2023-05-10T14:56:11;98118.00;;;24.10
11321;BMP180;5715;48.234;14.320;2023-05-10T14:58:59;98119.00;;;24.00
11321;BMP180;5715;48.234;14.320;2023-05-10T15:01:47;98119.00;;;24.00
11321;BMP180;5715;48.234;14.320;2023-05-10T15:04:36;98130.00;;;23.90
11321;BMP180;5715;48.234;14.320;2023-05-10T15:07:24;98127.00;;;23.50
11321;BMP180;5715;48.234;14.320;2023-05-10T15:10:12;98128.00;;;23.40
11321;BMP180;5715;48.234;14.320;2023-05-10T15:13:03;98131.00;;;23.40
11321;BMP180;5715;48.234;14.320;2023-05-10T15:15:51;98137.00;;;23.40
11321;BMP180;5715;48.234;14.320;2023-05-10T15:18:38;98140.00;;;23.10
11321;BMP180;5715;48.234;14.320;2023-05-10T15:21:26;98141.00;;;23.10
11321;BMP180;5715;48.234;14.320;2023-05-10T15:24:14;98136.00;;;23.50
11321;BMP180;5715;48.234;14.320;2023-05-10T15:27:02;98140.00;;;23.50
11321;BMP180;5715;48.234;14.320;2023-05-10T15:29:50;98142.00;;;23.70
11321;BMP180;5715;48.234;14.320;2023-05-10T15:32:37;98137.00;;;24.20
11321;BMP180;5715;48.234;14.320;2023-05-10T15:35:27;98130.00;;;24.10
11321;BMP180;5715;48.234;14.320;2023-05-10T15:38:15;98134.00;;;24.10
11321;BMP180;5715;48.234;14.320;2023-05-10T15:41:03;98138.00;;;24.30
11321;BMP180;5715;48.234;14.320;2023-05-10T15:43:50;98137.00;;;24.30
11321;BMP180;5715;48.234;14.320;2023-05-10T15:46:38;98130.00;;;24.60
11321;BMP180;5715;48.234;14.320;2023-05-10T15:49:25;98138.00;;;24.40
11321;BMP180;5715;48.234;14.320;2023-05-10T15:52:13;98132.00;;;24.30
11321;BMP180;5715;48.234;14.320;2023-05-10T15:55:00;98129.00;;;24.30
11321;BMP180;5715;48.234;14.320;2023-05-10T15:57:48;98136.00;;;24.30
11321;BMP180;5715;48.234;14.320;2023-05-10T16:00:36;98139.00;;;24.30
11321;BMP180;5715;48.234;14.320;2023-05-10T16:03:23;98142.00;;;24.40
11321;BMP180;5715;48.234;14.320;2023-05-10T16:06:11;98138.00;;;24.70
11321;BMP180;5715;48.234;14.320;2023-05-10T16:08:59;98141.00;;;24.70
11321;BMP180;5715;48.234;14.320;2023-05-10T16:11:47;98131.00;;;24.60
11321;BMP180;5715;48.234;14.320;2023-05-10T16:14:35;98133.00;;;24.10
11321;BMP180;5715;48.234;14.320;2023-05-10T16:17:22;98132.00;;;24.70
11321;BMP180;5715;48.234;14.320;2023-05-10T16:20:10;98132.00;;;24.70
11321;BMP180;5715;48.234;14.320;2023-05-10T16:23:05;98133.00;;;24.50
11321;BMP180;5715;48.234;14.320;2023-05-10T16:25:54;98134.00;;;24.50
11321;BMP180;5715;48.234;14.320;2023-05-10T16:28:47;98140.00;;;24.50
11321;BMP180;5715;48.234;14.320;2023-05-10T16:31:35;98130.00;;;24.60
11321;BMP180;5715;48.234;14.320;2023-05-10T16:34:23;98138.00;;;24.50
11321;BMP180;5715;48.234;14.320;2023-05-10T16:37:11;98140.00;;;24.50
11321;BMP180;5715;48.234;14.320;2023-05-10T16:39:59;98131.00;;;24.50
11321;BMP180;5715;48.234;14.320;2023-05-10T16:42:46;98143.00;;;24.60